createdAt,value
2019-02-06T00:00:50.896Z,3.50
2019-02-06T00:03:21.848Z,3.50
2019-02-06T00:05:53.062Z,3.50
2019-02-06T00:08:23.820Z,3.50
2019-02-06T00:10:54.848Z,3.50
2019-02-06T00:13:26.002Z,3.50
2019-02-06T00:15:56.879Z,3.50
2019-02-06T00:18:28.167Z,3.50
2019-02-06T00:20:59.309Z,3.50
2019-02-06T00:23:30.454Z,3.50
2019-02-06T00:26:01.360Z,3.50
2019-02-06T00:28:32.392Z,3.60
2019-02-06T00:31:03.347Z,3.60
2019-02-06T00:33:34.129Z,3.50
2019-02-06T00:36:04.880Z,3.50
2019-02-06T00:38:35.523Z,3.50
2019-02-06T00:41:06.334Z,3.50
2019-02-06T00:43:37.145Z,3.50
2019-02-06T00:46:08.084Z,3.50
2019-02-06T00:48:38.824Z,3.50
2019-02-06T00:51:09.400Z,3.50
2019-02-06T00:53:40.089Z,3.50
2019-02-06T00:56:10.987Z,3.50
2019-02-06T00:58:42.158Z,3.40
2019-02-06T01:01:13.066Z,3.40
2019-02-06T01:03:44.029Z,3.40
2019-02-06T01:06:14.776Z,3.40
2019-02-06T01:08:46.056Z,3.40
2019-02-06T01:11:17.357Z,3.40
2019-02-06T01:13:48.156Z,3.40
2019-02-06T01:16:18.841Z,3.40
2019-02-06T01:18:49.803Z,3.30
2019-02-06T01:21:20.638Z,3.30
2019-02-06T01:23:51.476Z,3.30
2019-02-06T01:26:22.229Z,3.30
2019-02-06T01:28:53.080Z,3.30
2019-02-06T01:31:24.583Z,3.30
2019-02-06T01:33:55.581Z,3.30
2019-02-06T01:36:26.601Z,3.30
2019-02-06T01:38:57.426Z,3.30
2019-02-06T01:41:28.424Z,3.30
2019-02-06T01:43:59.655Z,3.30
2019-02-06T01:46:30.349Z,3.30
2019-02-06T01:49:01.152Z,3.30
2019-02-06T01:51:31.821Z,3.30
2019-02-06T01:54:02.469Z,3.20
2019-02-06T01:56:33.083Z,3.30
2019-02-06T01:59:03.697Z,3.30
2019-02-06T02:01:34.347Z,3.20
2019-02-06T02:04:05.241Z,3.20
2019-02-06T02:06:36.162Z,3.30
2019-02-06T02:09:10.028Z,3.20
2019-02-06T02:11:41.259Z,3.20
2019-02-06T02:14:11.868Z,3.20
2019-02-06T02:16:42.741Z,3.20
2019-02-06T02:19:13.325Z,3.20
2019-02-06T02:21:43.911Z,3.20
2019-02-06T02:24:16.209Z,3.20
2019-02-06T02:26:47.112Z,3.20
2019-02-06T02:29:17.706Z,3.10
2019-02-06T02:31:49.026Z,3.10
2019-02-06T02:34:20.071Z,3.10
2019-02-06T02:36:50.921Z,3.10
2019-02-06T02:39:21.768Z,3.10
2019-02-06T02:41:52.532Z,3.10
2019-02-06T02:44:23.265Z,3.10
2019-02-06T02:46:54.199Z,3.10
2019-02-06T02:49:24.798Z,3.10
2019-02-06T02:51:55.934Z,3.00
2019-02-06T02:54:26.976Z,3.00
2019-02-06T02:56:57.847Z,3.00
2019-02-06T02:59:29.036Z,3.00
2019-02-06T03:02:01.473Z,3.00
2019-02-06T03:04:32.571Z,3.00
2019-02-06T03:07:03.365Z,3.00
2019-02-06T03:09:34.433Z,3.00
2019-02-06T03:12:05.128Z,3.00
2019-02-06T03:14:36.058Z,3.00
2019-02-06T03:17:07.149Z,3.00
2019-02-06T03:19:37.952Z,2.90
2019-02-06T03:22:09.250Z,2.90
2019-02-06T03:24:40.577Z,2.90
2019-02-06T03:27:11.331Z,2.90
2019-02-06T03:29:42.449Z,2.90
2019-02-06T03:32:13.195Z,2.90
2019-02-06T03:34:44.328Z,2.90
2019-02-06T03:37:15.692Z,2.90
2019-02-06T03:39:46.471Z,2.90
2019-02-06T03:42:17.321Z,2.90
2019-02-06T03:44:48.434Z,2.90
2019-02-06T03:47:19.039Z,2.90
2019-02-06T03:49:49.965Z,2.90
2019-02-06T03:52:20.842Z,2.90
2019-02-06T03:54:51.833Z,2.90
2019-02-06T03:57:22.990Z,2.90
2019-02-06T03:59:53.749Z,2.90
2019-02-06T04:02:24.994Z,2.90
2019-02-06T04:04:56.033Z,2.90
2019-02-06T04:07:26.788Z,2.90
2019-02-06T04:09:57.531Z,2.90
2019-02-06T04:12:28.319Z,2.90
2019-02-06T04:14:59.196Z,2.90
2019-02-06T04:17:29.905Z,2.90
2019-02-06T04:20:00.676Z,2.90
2019-02-06T04:22:31.355Z,2.90
2019-02-06T04:25:02.377Z,2.80
2019-02-06T04:27:33.524Z,2.90
2019-02-06T04:30:05.617Z,2.90
2019-02-06T04:32:36.761Z,2.90
2019-02-06T04:35:09.412Z,2.90
2019-02-06T04:37:40.169Z,2.90
2019-02-06T04:40:16.551Z,2.90
2019-02-06T04:42:47.169Z,2.90
2019-02-06T04:45:18.972Z,2.90
2019-02-06T04:47:49.747Z,2.90
2019-02-06T04:50:20.549Z,2.90
2019-02-06T04:52:51.363Z,2.90
2019-02-06T04:55:22.657Z,2.90
2019-02-06T04:57:53.411Z,2.90
2019-02-06T05:00:26.126Z,2.90
2019-02-06T05:02:56.717Z,2.90
2019-02-06T05:05:27.558Z,2.90
2019-02-06T05:07:58.328Z,2.90
2019-02-06T05:10:29.418Z,2.90
2019-02-06T05:13:00.209Z,2.90
2019-02-06T05:15:30.947Z,2.80
2019-02-06T05:18:01.580Z,2.90
2019-02-06T05:20:37.543Z,2.80
2019-02-06T05:23:12.501Z,2.90
2019-02-06T05:25:43.363Z,2.80
2019-02-06T05:28:14.494Z,2.80
2019-02-06T05:30:45.345Z,2.80
2019-02-06T05:33:16.109Z,2.80
2019-02-06T05:35:46.693Z,2.80
2019-02-06T05:38:17.367Z,2.80
2019-02-06T05:40:48.090Z,2.80
2019-02-06T05:43:18.741Z,2.80
2019-02-06T05:45:49.535Z,2.80
2019-02-06T05:48:20.213Z,2.80
2019-02-06T05:50:51.391Z,2.80
2019-02-06T05:53:22.290Z,2.80
2019-02-06T05:55:53.259Z,2.80
2019-02-06T05:58:24.054Z,2.80
2019-02-06T06:00:54.892Z,2.80
2019-02-06T06:03:25.574Z,2.80
2019-02-06T06:05:56.476Z,2.80
2019-02-06T06:08:27.192Z,2.80
2019-02-06T06:10:57.966Z,2.80
2019-02-06T06:13:29.177Z,2.80
2019-02-06T06:16:00.008Z,2.80
2019-02-06T06:18:30.650Z,2.80
2019-02-06T06:21:01.786Z,2.70
2019-02-06T06:23:32.576Z,2.80
2019-02-06T06:26:03.356Z,2.80
2019-02-06T06:28:34.139Z,2.80
2019-02-06T06:31:04.850Z,2.80
2019-02-06T06:33:35.985Z,2.80
2019-02-06T06:36:07.942Z,2.80
2019-02-06T06:38:38.772Z,2.80
2019-02-06T06:41:09.578Z,2.80
2019-02-06T06:43:40.460Z,2.80
2019-02-06T06:46:11.225Z,2.80
2019-02-06T06:48:42.355Z,2.80
2019-02-06T06:51:13.253Z,2.80
2019-02-06T06:53:44.433Z,2.80
2019-02-06T06:56:15.895Z,2.80
2019-02-06T06:58:47.132Z,2.80
2019-02-06T07:01:18.088Z,2.80
2019-02-06T07:03:49.228Z,2.80
2019-02-06T07:06:19.777Z,2.80
2019-02-06T07:08:50.650Z,2.80
2019-02-06T07:11:21.322Z,2.80
2019-02-06T07:13:52.683Z,2.80
2019-02-06T07:16:24.298Z,2.80
2019-02-06T07:18:55.115Z,2.80
2019-02-06T07:21:25.922Z,2.80
2019-02-06T07:23:57.031Z,2.80
2019-02-06T07:26:28.174Z,2.80
2019-02-06T07:28:58.949Z,2.80
2019-02-06T07:31:29.839Z,2.80
2019-02-06T07:34:00.806Z,2.80
2019-02-06T07:36:31.681Z,2.80
2019-02-06T07:39:02.665Z,2.80
2019-02-06T07:41:33.633Z,2.80
2019-02-06T07:44:05.043Z,2.80
2019-02-06T07:46:35.799Z,2.80
2019-02-06T07:49:06.821Z,2.80
2019-02-06T07:51:37.570Z,2.80
2019-02-06T07:54:08.637Z,2.80
2019-02-06T07:56:39.447Z,2.80
2019-02-06T07:59:10.572Z,2.80
2019-02-06T08:01:41.220Z,2.80
2019-02-06T08:04:12.001Z,2.80
2019-02-06T08:06:43.187Z,2.80
2019-02-06T08:09:14.292Z,2.80
2019-02-06T08:11:44.829Z,2.80
2019-02-06T08:14:15.845Z,2.80
2019-02-06T08:16:46.737Z,2.80
2019-02-06T08:19:17.393Z,2.80
2019-02-06T08:21:49.799Z,2.80
2019-02-06T08:24:21.682Z,2.80
2019-02-06T08:26:53.058Z,2.80
2019-02-06T08:29:23.843Z,2.80
2019-02-06T08:31:54.504Z,2.80
2019-02-06T08:34:25.609Z,2.80
2019-02-06T08:36:56.349Z,2.80
2019-02-06T08:39:27.540Z,2.80
2019-02-06T08:41:58.416Z,2.70
2019-02-06T08:44:28.946Z,2.80
2019-02-06T08:47:00.225Z,2.80
2019-02-06T08:49:31.116Z,2.80
2019-02-06T08:52:02.025Z,2.80
2019-02-06T08:54:33.056Z,2.80
2019-02-06T08:57:03.874Z,2.80
2019-02-06T08:59:37.426Z,2.80
2019-02-06T09:02:08.295Z,2.80
2019-02-06T09:04:39.499Z,2.80
2019-02-06T09:07:10.186Z,2.80
2019-02-06T09:09:43.539Z,2.80
2019-02-06T09:12:13.593Z,2.80
2019-02-06T09:14:44.310Z,2.80
2019-02-06T09:17:15.007Z,2.80
2019-02-06T09:19:45.684Z,2.80
2019-02-06T09:22:16.796Z,2.80
2019-02-06T09:24:47.665Z,2.80
2019-02-06T09:27:19.168Z,2.80
2019-02-06T09:29:52.766Z,2.80
2019-02-06T09:32:23.524Z,2.80
2019-02-06T09:34:54.224Z,2.80
2019-02-06T09:37:24.872Z,2.80
2019-02-06T09:39:56.566Z,2.80
2019-02-06T09:42:27.318Z,2.80
2019-02-06T09:44:57.896Z,2.80
2019-02-06T09:47:28.688Z,2.80
2019-02-06T09:49:59.521Z,2.80
2019-02-06T09:52:30.583Z,2.80
2019-02-06T09:55:01.925Z,2.80
2019-02-06T09:57:35.416Z,2.80
2019-02-06T10:00:08.008Z,2.90
2019-02-06T10:02:50.476Z,2.90
2019-02-06T10:05:21.872Z,2.90
2019-02-06T10:07:52.748Z,2.80
2019-02-06T10:10:25.828Z,2.90
2019-02-06T10:12:57.036Z,2.90
2019-02-06T10:15:36.573Z,2.90
2019-02-06T10:18:07.682Z,2.90
2019-02-06T10:20:40.708Z,2.90
2019-02-06T10:23:11.676Z,2.90
2019-02-06T10:25:42.674Z,2.90
2019-02-06T10:28:13.789Z,2.90
2019-02-06T10:30:46.402Z,2.90
2019-02-06T10:33:18.802Z,2.90
2019-02-06T10:35:51.990Z,2.90
2019-02-06T10:38:22.801Z,2.90
2019-02-06T10:40:55.014Z,2.90
2019-02-06T10:43:32.022Z,2.90
2019-02-06T10:45:59.227Z,2.90
2019-02-06T10:48:30.452Z,2.90
2019-02-06T10:51:01.307Z,2.90
2019-02-06T10:53:32.151Z,3.00
2019-02-06T10:56:03.267Z,2.90
2019-02-06T10:58:34.193Z,2.90
2019-02-06T11:01:05.475Z,3.00
2019-02-06T11:03:36.242Z,2.90
2019-02-06T11:06:07.038Z,3.00
2019-02-06T11:08:37.927Z,3.00
2019-02-06T11:11:08.894Z,3.00
2019-02-06T11:13:39.681Z,3.00
2019-02-06T11:16:10.572Z,3.00
2019-02-06T11:18:44.450Z,3.00
2019-02-06T11:21:13.991Z,3.10
2019-02-06T11:23:44.897Z,3.00
2019-02-06T11:26:15.675Z,3.10
2019-02-06T11:28:46.478Z,3.10
2019-02-06T11:31:17.478Z,3.10
2019-02-06T11:33:48.352Z,3.10
2019-02-06T11:36:24.152Z,3.10
2019-02-06T11:38:51.870Z,3.10
2019-02-06T11:41:22.748Z,3.10
2019-02-06T11:43:53.516Z,3.10
2019-02-06T11:46:24.355Z,3.10
2019-02-06T11:48:55.835Z,3.10
2019-02-06T11:51:27.291Z,3.10
2019-02-06T11:54:00.786Z,3.10
2019-02-06T11:56:34.424Z,3.10
2019-02-06T11:59:07.894Z,3.20
2019-02-06T12:01:39.492Z,3.20
2019-02-06T12:04:10.335Z,3.20
2019-02-06T12:06:41.120Z,3.20
2019-02-06T12:09:12.636Z,3.20
2019-02-06T12:11:43.348Z,3.20
2019-02-06T12:14:14.374Z,3.20
2019-02-06T12:16:45.227Z,3.20
2019-02-06T12:19:16.062Z,3.20
2019-02-06T12:21:46.812Z,3.20
2019-02-06T12:24:17.601Z,3.20
2019-02-06T12:26:48.470Z,3.20
2019-02-06T12:29:19.167Z,3.20
2019-02-06T12:31:50.038Z,3.20
2019-02-06T12:34:20.899Z,3.20
2019-02-06T12:36:51.768Z,3.30
2019-02-06T12:39:22.838Z,3.20
2019-02-06T12:41:56.557Z,3.20
2019-02-06T12:44:30.607Z,3.20
2019-02-06T12:47:01.907Z,3.30
2019-02-06T12:49:33.002Z,3.30
2019-02-06T12:52:03.915Z,3.30
2019-02-06T12:54:34.740Z,3.30
2019-02-06T12:57:05.725Z,3.30
2019-02-06T12:59:36.524Z,3.30
2019-02-06T13:02:07.216Z,3.30
2019-02-06T13:04:37.978Z,3.30
2019-02-06T13:07:08.719Z,3.30
2019-02-06T13:09:39.535Z,3.30
2019-02-06T13:12:10.845Z,3.30
2019-02-06T13:14:41.627Z,3.30
2019-02-06T13:17:12.331Z,3.30
2019-02-06T13:19:43.171Z,3.30
2019-02-06T13:22:13.941Z,3.40
2019-02-06T13:24:44.538Z,3.40
2019-02-06T13:27:15.151Z,3.40
2019-02-06T13:29:46.064Z,3.40
2019-02-06T13:32:16.942Z,3.40
2019-02-06T13:34:47.806Z,3.40
2019-02-06T13:37:18.499Z,3.40
2019-02-06T13:39:49.605Z,3.40
2019-02-06T13:42:20.772Z,3.40
2019-02-06T13:44:51.672Z,3.40
2019-02-06T13:47:22.245Z,3.40
2019-02-06T13:49:53.482Z,3.40
2019-02-06T13:52:25.251Z,3.40
2019-02-06T13:54:56.348Z,3.70
2019-02-06T13:57:33.787Z,3.90
2019-02-06T13:59:59.445Z,4.00
2019-02-06T14:02:30.321Z,4.20
2019-02-06T14:05:01.339Z,4.30
2019-02-06T14:07:32.397Z,4.40
2019-02-06T14:10:05.228Z,4.50
2019-02-06T14:12:36.384Z,4.50
2019-02-06T14:15:10.397Z,4.50
2019-02-06T14:17:41.566Z,4.60
2019-02-06T14:20:15.536Z,4.60
2019-02-06T14:22:48.263Z,4.60
2019-02-06T14:25:24.982Z,4.60
2019-02-06T14:28:04.606Z,4.60
2019-02-06T14:30:38.146Z,4.60
2019-02-06T14:33:20.706Z,4.70
2019-02-06T14:35:59.729Z,4.70
2019-02-06T14:38:33.331Z,4.70
2019-02-06T14:41:08.563Z,4.70
2019-02-06T14:43:57.135Z,4.70
2019-02-06T14:46:36.444Z,4.70
2019-02-06T14:49:24.528Z,4.70
2019-02-06T14:51:58.402Z,4.70
2019-02-06T14:54:40.950Z,4.70
2019-02-06T14:57:17.029Z,4.70
2019-02-06T14:59:59.517Z,4.70
2019-02-06T15:02:39.274Z,4.70
2019-02-06T15:05:22.038Z,4.70
2019-02-06T15:07:58.119Z,4.70
2019-02-06T15:10:37.365Z,4.70
2019-02-06T15:13:22.796Z,4.70
2019-02-06T15:15:58.973Z,4.70
2019-02-06T15:18:35.525Z,4.70
2019-02-06T15:21:23.929Z,4.70
2019-02-06T15:24:14.031Z,4.70
2019-02-06T15:27:05.396Z,4.70
2019-02-06T15:29:48.105Z,4.70
2019-02-06T15:32:38.337Z,4.70
2019-02-06T15:35:34.817Z,4.70
2019-02-06T15:38:17.918Z,4.70
2019-02-06T15:40:57.663Z,4.70
2019-02-06T15:43:43.396Z,4.70
2019-02-06T15:46:26.093Z,4.70
2019-02-06T15:49:16.295Z,4.70
2019-02-06T15:51:55.928Z,4.70
2019-02-06T15:54:47.667Z,4.70
2019-02-06T15:57:23.822Z,4.70
2019-02-06T16:00:14.220Z,4.70
2019-02-06T16:02:56.899Z,4.70
2019-02-06T16:05:56.199Z,4.70
2019-02-06T16:08:54.027Z,4.70
2019-02-06T16:11:42.887Z,4.70
2019-02-06T16:14:31.365Z,4.70
2019-02-06T16:17:11.311Z,4.70
2019-02-06T16:20:05.171Z,4.70
2019-02-06T16:22:34.639Z,4.70
2019-02-06T16:25:19.889Z,4.70
2019-02-06T16:27:59.778Z,4.70
2019-02-06T16:30:52.838Z,4.70
2019-02-06T16:33:28.834Z,4.70
2019-02-06T16:36:06.083Z,4.70
2019-02-06T16:38:48.339Z,4.70
2019-02-06T16:41:56.890Z,4.70
2019-02-06T16:44:45.621Z,4.60
2019-02-06T16:47:45.694Z,4.60
2019-02-06T16:50:15.416Z,4.60
2019-02-06T16:53:07.334Z,4.60
2019-02-06T16:55:55.549Z,4.60
2019-02-06T16:58:57.665Z,4.60
2019-02-06T17:01:40.119Z,4.60
2019-02-06T17:04:22.313Z,4.60
2019-02-06T17:07:15.797Z,4.60
2019-02-06T17:09:55.318Z,4.60
2019-02-06T17:12:31.670Z,4.60
2019-02-06T17:15:14.785Z,4.60
2019-02-06T17:18:11.188Z,4.60
2019-02-06T17:20:48.031Z,4.60
2019-02-06T17:23:52.128Z,4.60
2019-02-06T17:26:51.307Z,4.60
2019-02-06T17:29:25.048Z,4.60
2019-02-06T17:32:29.498Z,4.60
2019-02-06T17:35:19.800Z,4.60
2019-02-06T17:37:56.301Z,4.60
2019-02-06T17:40:35.631Z,4.60
2019-02-06T17:43:09.588Z,4.50
2019-02-06T17:45:48.753Z,4.60
2019-02-06T17:48:38.807Z,4.60
2019-02-06T17:51:36.723Z,4.60
2019-02-06T17:54:22.798Z,4.60
2019-02-06T17:56:53.712Z,4.60
2019-02-06T17:59:24.855Z,4.50
2019-02-06T18:01:57.413Z,4.50
2019-02-06T18:04:28.519Z,4.60
2019-02-06T18:06:59.972Z,4.50
2019-02-06T18:09:30.975Z,4.50
2019-02-06T18:12:02.212Z,4.50
2019-02-06T18:14:33.191Z,4.50
2019-02-06T18:17:04.984Z,4.50
2019-02-06T18:19:38.024Z,4.50
2019-02-06T18:22:09.105Z,4.50
2019-02-06T18:24:40.380Z,4.50
2019-02-06T18:27:14.460Z,4.50
2019-02-06T18:29:45.280Z,4.60
2019-02-06T18:32:16.253Z,4.50
2019-02-06T18:34:47.225Z,4.50
2019-02-06T18:37:18.219Z,4.50
2019-02-06T18:39:49.125Z,4.50
2019-02-06T18:42:20.007Z,4.50
2019-02-06T18:44:51.148Z,4.50
2019-02-06T18:47:23.356Z,4.50
2019-02-06T18:49:54.239Z,4.50
2019-02-06T18:52:25.614Z,4.50
2019-02-06T18:54:56.530Z,4.50
2019-02-06T18:57:27.698Z,4.50
2019-02-06T18:59:58.662Z,4.50
2019-02-06T19:02:31.442Z,4.50
2019-02-06T19:05:02.745Z,4.50
2019-02-06T19:07:33.576Z,4.50
2019-02-06T19:10:10.832Z,4.50
2019-02-06T19:12:47.988Z,4.50
2019-02-06T19:15:16.802Z,4.50
2019-02-06T19:17:48.331Z,4.50
2019-02-06T19:20:19.726Z,4.50
2019-02-06T19:22:50.801Z,4.50
2019-02-06T19:25:23.913Z,4.50
2019-02-06T19:27:56.424Z,4.50
2019-02-06T19:30:35.901Z,4.50
2019-02-06T19:33:10.927Z,4.50
2019-02-06T19:35:41.807Z,4.50
2019-02-06T19:38:13.128Z,4.50
2019-02-06T19:40:44.129Z,4.50
2019-02-06T19:43:18.277Z,4.50
2019-02-06T19:45:49.182Z,4.40
2019-02-06T19:48:22.318Z,4.50
2019-02-06T19:50:52.541Z,4.50
2019-02-06T19:53:23.541Z,4.50
2019-02-06T19:55:54.457Z,4.40
2019-02-06T19:58:25.310Z,4.40
2019-02-06T20:00:56.287Z,4.40
2019-02-06T20:03:27.445Z,4.40
2019-02-06T20:05:58.561Z,4.40
2019-02-06T20:08:29.791Z,4.40
2019-02-06T20:11:00.578Z,4.40
2019-02-06T20:13:31.791Z,4.40
2019-02-06T20:16:02.934Z,4.40
2019-02-06T20:18:33.874Z,4.40
2019-02-06T20:21:05.125Z,4.40
2019-02-06T20:23:37.542Z,4.40
2019-02-06T20:26:08.314Z,4.40
2019-02-06T20:28:39.491Z,4.40
2019-02-06T20:31:10.390Z,4.40
2019-02-06T20:33:41.389Z,4.40
2019-02-06T20:36:12.262Z,4.40
2019-02-06T20:38:43.147Z,4.40
2019-02-06T20:41:14.164Z,4.40
2019-02-06T20:43:45.521Z,4.40
2019-02-06T20:46:16.522Z,4.40
2019-02-06T20:48:47.328Z,4.40
2019-02-06T20:51:18.334Z,4.40
2019-02-06T20:53:49.236Z,4.40
2019-02-06T20:56:19.949Z,4.40
2019-02-06T20:58:51.323Z,4.40
2019-02-06T21:01:22.264Z,4.40
2019-02-06T21:03:53.159Z,4.40
2019-02-06T21:06:24.153Z,4.40
2019-02-06T21:08:55.139Z,4.40
2019-02-06T21:11:26.008Z,4.40
2019-02-06T21:13:56.855Z,4.40
2019-02-06T21:16:27.638Z,4.40
2019-02-06T21:18:58.305Z,4.30
2019-02-06T21:21:29.048Z,4.40
2019-02-06T21:23:59.836Z,4.40
2019-02-06T21:26:31.083Z,4.40
2019-02-06T21:29:02.195Z,4.40
2019-02-06T21:31:33.096Z,4.40
2019-02-06T21:34:05.856Z,4.40
2019-02-06T21:36:36.387Z,4.40
2019-02-06T21:39:08.650Z,4.40
2019-02-06T21:41:39.765Z,4.40
2019-02-06T21:44:10.804Z,4.40
2019-02-06T21:46:41.840Z,4.40
2019-02-06T21:49:12.648Z,4.40
2019-02-06T21:51:43.433Z,4.40
2019-02-06T21:54:14.232Z,4.40
2019-02-06T21:56:45.256Z,4.40
2019-02-06T21:59:16.110Z,4.40
2019-02-06T22:01:47.030Z,4.40
2019-02-06T22:04:18.503Z,4.40
2019-02-06T22:06:49.333Z,4.40
2019-02-06T22:09:19.883Z,4.40
2019-02-06T22:11:50.814Z,4.40
2019-02-06T22:14:22.047Z,4.40
2019-02-06T22:16:52.755Z,4.40
2019-02-06T22:19:24.980Z,4.40
2019-02-06T22:21:55.757Z,4.40
2019-02-06T22:24:26.375Z,4.40
2019-02-06T22:26:57.563Z,4.40
2019-02-06T22:29:28.610Z,4.40
2019-02-06T22:31:59.711Z,4.40
2019-02-06T22:34:37.760Z,4.40
2019-02-06T22:37:08.548Z,4.40
2019-02-06T22:39:39.178Z,4.40
2019-02-06T22:42:09.926Z,4.40
2019-02-06T22:44:41.025Z,4.40
2019-02-06T22:47:11.810Z,4.40
2019-02-06T22:49:42.872Z,4.40
2019-02-06T22:52:13.436Z,4.40
2019-02-06T22:54:44.411Z,4.40
2019-02-06T22:57:15.303Z,4.40
2019-02-06T22:59:46.261Z,4.40
2019-02-06T23:02:17.190Z,4.40
2019-02-06T23:04:47.913Z,4.40
2019-02-06T23:07:18.693Z,4.40
2019-02-06T23:09:49.575Z,4.40
2019-02-06T23:12:20.559Z,4.40
2019-02-06T23:14:51.639Z,4.40
2019-02-06T23:17:22.549Z,4.40
2019-02-06T23:19:53.514Z,4.40
2019-02-06T23:22:24.209Z,4.40
2019-02-06T23:24:54.817Z,4.40
2019-02-06T23:27:26.036Z,4.40
2019-02-06T23:29:57.456Z,4.40
2019-02-06T23:32:28.223Z,4.40
2019-02-06T23:34:59.108Z,4.40
2019-02-06T23:37:29.742Z,4.40
2019-02-06T23:40:00.828Z,4.40
2019-02-06T23:42:31.729Z,4.40
2019-02-06T23:45:02.622Z,4.40
2019-02-06T23:47:33.640Z,4.40
2019-02-06T23:50:06.322Z,4.40
2019-02-06T23:52:37.010Z,4.40
2019-02-06T23:55:08.481Z,4.40
2019-02-06T23:57:39.401Z,4.40
